createdAt,value
2019-03-10T00:01:46.844Z,5.45
2019-03-10T00:04:17.491Z,5.36
2019-03-10T00:06:47.973Z,5.32
2019-03-10T00:09:18.058Z,5.26
2019-03-10T00:11:49.882Z,5.26
2019-03-10T00:14:20.052Z,5.31
2019-03-10T00:16:52.212Z,5.34
2019-03-10T00:19:22.465Z,5.45
2019-03-10T00:21:52.643Z,5.51
2019-03-10T00:24:22.815Z,5.54
2019-03-10T00:26:53.074Z,5.67
2019-03-10T00:29:23.268Z,5.76
2019-03-10T00:31:53.719Z,5.94
2019-03-10T00:34:24.196Z,5.98
2019-03-10T00:36:54.278Z,6.00
2019-03-10T00:40:15.243Z,5.97
2019-03-10T00:43:20.855Z,5.96
2019-03-10T00:46:27.455Z,5.90
2019-03-10T00:49:34.329Z,5.92
2019-03-10T00:52:17.790Z,5.96
2019-03-10T00:54:47.725Z,5.94
2019-03-10T00:57:18.053Z,6.05
2019-03-10T00:59:48.302Z,6.06
2019-03-10T01:02:18.432Z,6.07
2019-03-10T01:04:50.711Z,6.09
2019-03-10T01:07:21.303Z,6.04
2019-03-10T01:09:51.501Z,6.09
2019-03-10T01:12:21.635Z,6.13
2019-03-10T01:14:51.888Z,6.13
2019-03-10T01:17:22.436Z,6.23
2019-03-10T01:19:52.727Z,6.20
2019-03-10T01:22:23.133Z,6.26
2019-03-10T01:24:53.429Z,6.36
2019-03-10T01:27:23.718Z,6.34
2019-03-10T01:29:54.778Z,6.35
2019-03-10T01:33:04.502Z,6.25
2019-03-10T01:35:42.534Z,6.25
2019-03-10T01:38:12.581Z,6.24
2019-03-10T01:40:42.815Z,6.33
2019-03-10T01:43:13.227Z,6.33
2019-03-10T01:45:43.401Z,6.35
2019-03-10T01:48:13.507Z,6.32
2019-03-10T01:50:43.772Z,6.34
2019-03-10T01:53:13.975Z,6.40
2019-03-10T01:55:44.805Z,6.40
2019-03-10T01:58:15.864Z,6.43
2019-03-10T02:00:46.308Z,6.42
2019-03-10T02:03:16.940Z,6.45
2019-03-10T02:05:47.206Z,6.56
2019-03-10T02:08:17.512Z,6.49
2019-03-10T02:10:48.634Z,6.59
2019-03-10T02:13:18.834Z,6.61
2019-03-10T02:15:49.074Z,6.73
2019-03-10T02:18:19.355Z,6.62
2019-03-10T02:20:49.549Z,6.62
2019-03-10T02:23:19.707Z,6.75
2019-03-10T02:25:50.393Z,6.69
2019-03-10T02:28:21.392Z,6.80
2019-03-10T02:30:52.314Z,6.79
2019-03-10T02:33:22.508Z,6.96
2019-03-10T02:35:53.071Z,7.07
2019-03-10T02:38:26.040Z,7.10
2019-03-10T02:40:58.658Z,7.11
2019-03-10T02:43:29.332Z,7.14
2019-03-10T02:46:00.230Z,7.23
2019-03-10T02:48:31.518Z,7.15
2019-03-10T02:51:03.501Z,7.21
2019-03-10T02:53:35.698Z,7.19
2019-03-10T02:56:06.405Z,7.23
2019-03-10T02:58:37.068Z,7.34
2019-03-10T03:01:07.467Z,7.25
2019-03-10T03:03:37.566Z,7.34
2019-03-10T03:06:08.248Z,7.24
2019-03-10T03:08:38.457Z,7.16
2019-03-10T03:11:08.724Z,7.29
2019-03-10T03:13:39.229Z,7.22
2019-03-10T03:16:09.525Z,7.19
2019-03-10T03:18:39.681Z,7.17
2019-03-10T03:21:09.892Z,7.18
2019-03-10T03:23:40.215Z,7.15
2019-03-10T03:26:10.459Z,7.09
2019-03-10T03:28:40.793Z,7.14
2019-03-10T03:31:11.011Z,7.16
2019-03-10T03:33:41.165Z,7.21
2019-03-10T03:36:18.745Z,7.21
2019-03-10T03:38:52.931Z,7.28
2019-03-10T03:41:24.114Z,7.16
2019-03-10T03:43:54.396Z,7.29
2019-03-10T03:46:26.100Z,7.34
2019-03-10T03:48:56.804Z,7.40
2019-03-10T03:51:35.326Z,7.39
2019-03-10T03:54:19.669Z,7.39
2019-03-10T03:56:49.703Z,7.38
2019-03-10T03:59:19.778Z,7.40
2019-03-10T04:01:57.059Z,7.43
2019-03-10T04:04:27.180Z,7.45
2019-03-10T04:06:57.283Z,7.51
2019-03-10T04:09:27.438Z,7.60
2019-03-10T04:11:57.492Z,7.65
2019-03-10T04:14:27.536Z,7.63
2019-03-10T04:16:57.521Z,7.62
2019-03-10T04:19:27.558Z,7.62
2019-03-10T04:21:57.551Z,7.73
2019-03-10T04:24:27.572Z,7.66
2019-03-10T04:26:57.970Z,7.63
2019-03-10T04:29:28.005Z,7.62
2019-03-10T04:31:58.180Z,7.59
2019-03-10T04:34:28.533Z,7.55
2019-03-10T04:36:58.635Z,7.57
2019-03-10T04:39:28.563Z,7.53
2019-03-10T04:41:59.154Z,7.49
2019-03-10T04:44:29.079Z,7.51
2019-03-10T04:46:59.193Z,7.50
2019-03-10T04:49:29.122Z,7.43
2019-03-10T04:51:59.306Z,7.53
2019-03-10T04:54:46.061Z,7.50
2019-03-10T04:57:18.753Z,7.55
2019-03-10T04:59:49.115Z,7.60
2019-03-10T05:02:19.228Z,7.62
2019-03-10T05:04:49.534Z,7.61
2019-03-10T05:07:19.460Z,7.58
2019-03-10T05:09:49.444Z,7.59
2019-03-10T05:12:19.564Z,7.63
2019-03-10T05:14:49.600Z,7.63
2019-03-10T05:17:19.796Z,7.60
2019-03-10T05:19:49.820Z,7.63
2019-03-10T05:22:20.332Z,7.62
2019-03-10T05:24:50.690Z,7.71
2019-03-10T05:27:20.696Z,7.73
2019-03-10T05:29:50.949Z,7.76
2019-03-10T05:32:20.901Z,7.82
2019-03-10T05:34:51.217Z,7.80
2019-03-10T05:37:21.455Z,7.84
2019-03-10T05:39:51.406Z,7.79
2019-03-10T05:42:21.580Z,7.83
2019-03-10T05:44:51.527Z,7.84
2019-03-10T05:47:21.635Z,7.89
2019-03-10T05:49:52.065Z,7.85
2019-03-10T05:52:22.021Z,7.86
2019-03-10T05:54:52.208Z,7.88
2019-03-10T05:57:22.654Z,7.89
2019-03-10T05:59:52.756Z,7.97
2019-03-10T06:02:23.055Z,7.90
2019-03-10T06:04:53.487Z,8.00
2019-03-10T06:07:23.587Z,8.01
2019-03-10T06:09:54.732Z,8.06
2019-03-10T06:12:24.811Z,8.02
2019-03-10T06:14:55.236Z,8.14
2019-03-10T06:17:25.563Z,8.03
2019-03-10T06:19:55.753Z,8.03
2019-03-10T06:22:25.746Z,8.04
2019-03-10T06:24:55.657Z,8.20
2019-03-10T06:27:25.764Z,8.15
2019-03-10T06:29:55.846Z,7.99
2019-03-10T06:32:26.390Z,7.93
2019-03-10T06:34:56.468Z,7.94
2019-03-10T06:37:26.607Z,7.89
2019-03-10T06:39:57.004Z,7.94
2019-03-10T06:42:27.026Z,7.96
2019-03-10T06:44:57.358Z,7.89
2019-03-10T06:47:27.499Z,7.98
2019-03-10T06:49:57.517Z,7.95
2019-03-10T06:52:27.623Z,7.95
2019-03-10T06:54:57.687Z,8.00
2019-03-10T06:57:28.016Z,8.03
2019-03-10T06:59:58.132Z,8.06
2019-03-10T07:02:28.178Z,7.98
2019-03-10T07:04:58.199Z,8.02
2019-03-10T07:07:28.395Z,8.00
2019-03-10T07:09:58.746Z,8.07
2019-03-10T07:12:29.266Z,8.11
2019-03-10T07:14:59.181Z,8.23
2019-03-10T07:17:31.832Z,8.20
2019-03-10T07:20:01.956Z,8.29
2019-03-10T07:22:31.887Z,8.21
2019-03-10T07:25:01.990Z,8.15
2019-03-10T07:27:41.448Z,8.10
2019-03-10T07:30:32.553Z,8.07
2019-03-10T07:33:21.394Z,8.02
2019-03-10T07:36:19.457Z,7.91
2019-03-10T07:39:08.658Z,7.84
2019-03-10T07:41:56.444Z,7.81
2019-03-10T07:44:44.213Z,7.86
2019-03-10T07:47:42.106Z,7.77
2019-03-10T07:50:39.918Z,7.75
2019-03-10T07:53:27.741Z,7.62
2019-03-10T07:56:14.847Z,7.65
2019-03-10T07:59:03.734Z,7.66
2019-03-10T08:01:58.972Z,7.66
2019-03-10T08:04:42.194Z,7.69
2019-03-10T08:07:47.043Z,7.65
2019-03-10T08:10:44.685Z,7.68
2019-03-10T08:13:31.549Z,7.71
2019-03-10T08:16:25.776Z,7.80
2019-03-10T08:19:20.963Z,7.83
2019-03-10T08:22:20.790Z,7.74
2019-03-10T08:25:31.750Z,7.75
2019-03-10T08:28:20.282Z,7.68
2019-03-10T08:31:23.762Z,7.57
2019-03-10T08:34:15.633Z,7.57
2019-03-10T08:36:58.935Z,7.47
2019-03-10T08:39:47.786Z,7.42
2019-03-10T08:42:28.677Z,7.29
2019-03-10T08:45:17.523Z,7.23
2019-03-10T08:48:04.907Z,7.20
2019-03-10T08:51:12.251Z,7.14
2019-03-10T08:54:07.432Z,6.96
2019-03-10T08:56:55.913Z,7.12
2019-03-10T08:59:33.445Z,7.11
2019-03-10T09:02:28.705Z,7.12
2019-03-10T09:05:14.985Z,7.14
2019-03-10T09:08:12.586Z,7.05
2019-03-10T09:11:00.601Z,7.11
2019-03-10T09:13:55.318Z,7.15
2019-03-10T09:16:45.185Z,7.21
2019-03-10T09:19:28.391Z,7.17
2019-03-10T09:22:17.766Z,7.03
2019-03-10T09:25:15.963Z,7.08
2019-03-10T09:28:11.064Z,7.23
2019-03-10T09:30:56.069Z,7.25
2019-03-10T09:34:00.130Z,7.22
2019-03-10T09:37:07.287Z,7.17
2019-03-10T09:40:08.407Z,7.26
2019-03-10T09:43:04.252Z,7.18
2019-03-10T09:45:59.249Z,7.36
2019-03-10T09:48:44.758Z,7.49
2019-03-10T09:51:32.562Z,7.64
2019-03-10T09:54:14.266Z,7.64
2019-03-10T09:57:06.443Z,7.79
2019-03-10T10:00:02.116Z,7.71
2019-03-10T10:02:51.549Z,7.69
2019-03-10T10:05:28.156Z,7.96
2019-03-10T10:08:13.844Z,7.89
2019-03-10T10:11:08.415Z,7.82
2019-03-10T10:14:03.429Z,7.85
2019-03-10T10:16:50.896Z,7.88
2019-03-10T10:19:57.918Z,7.92
2019-03-10T10:22:38.421Z,8.11
2019-03-10T10:25:33.169Z,8.03
2019-03-10T10:28:22.201Z,7.72
2019-03-10T10:31:10.022Z,7.78
2019-03-10T10:33:57.949Z,7.96
2019-03-10T10:37:04.952Z,7.92
2019-03-10T10:39:51.748Z,8.01
2019-03-10T10:42:39.397Z,7.96
2019-03-10T10:45:32.577Z,7.85
2019-03-10T10:48:25.695Z,7.88
2019-03-10T10:51:16.591Z,7.90
2019-03-10T10:54:05.556Z,8.11
2019-03-10T10:56:53.929Z,8.18
2019-03-10T10:59:52.559Z,7.98
2019-03-10T11:02:31.452Z,8.12
2019-03-10T11:05:17.422Z,8.02
2019-03-10T11:08:04.762Z,8.01
2019-03-10T11:11:00.795Z,7.83
2019-03-10T11:13:50.182Z,7.96
2019-03-10T11:16:45.850Z,7.88
2019-03-10T11:19:34.719Z,7.83
2019-03-10T11:22:26.705Z,7.82
2019-03-10T11:25:18.759Z,7.82
2019-03-10T11:27:58.468Z,7.93
2019-03-10T11:30:46.198Z,7.84
2019-03-10T11:33:35.409Z,7.95
2019-03-10T11:36:18.224Z,8.20
2019-03-10T11:38:58.199Z,8.45
2019-03-10T11:41:34.321Z,8.50
2019-03-10T11:44:32.312Z,8.18
2019-03-10T11:47:27.389Z,8.01
2019-03-10T11:50:15.225Z,7.96
2019-03-10T11:52:59.829Z,7.83
2019-03-10T11:55:46.442Z,7.84
2019-03-10T11:58:29.982Z,7.79
2019-03-10T12:01:05.952Z,7.70
2019-03-10T12:03:55.034Z,7.70
2019-03-10T12:06:40.345Z,7.59
2019-03-10T12:09:23.643Z,7.68
2019-03-10T12:11:53.946Z,7.71
2019-03-10T12:14:24.227Z,7.99
2019-03-10T12:16:54.508Z,8.09
2019-03-10T12:19:24.759Z,8.08
2019-03-10T12:21:56.182Z,8.01
2019-03-10T12:24:26.832Z,8.04
2019-03-10T12:26:57.010Z,7.94
2019-03-10T12:29:28.836Z,8.10
2019-03-10T12:31:59.826Z,8.15
2019-03-10T12:34:30.142Z,8.40
2019-03-10T12:37:00.882Z,8.49
2019-03-10T12:39:31.474Z,8.67
2019-03-10T12:42:01.800Z,8.97
2019-03-10T12:44:32.449Z,9.05
2019-03-10T12:47:02.922Z,9.24
2019-03-10T12:49:34.030Z,9.28
2019-03-10T12:52:04.405Z,9.38
2019-03-10T12:54:34.721Z,9.56
2019-03-10T12:57:09.983Z,9.89
2019-03-10T12:59:40.751Z,9.64
2019-03-10T13:02:11.551Z,9.46
2019-03-10T13:04:43.142Z,9.50
2019-03-10T13:07:13.717Z,9.50
2019-03-10T13:09:44.159Z,9.44
2019-03-10T13:12:14.483Z,9.52
2019-03-10T13:14:44.732Z,9.51
2019-03-10T14:49:52.333Z,10.90
2019-03-10T14:52:31.111Z,11.03
2019-03-10T14:55:00.410Z,11.33
2019-03-10T14:57:29.790Z,11.43
2019-03-10T14:59:59.118Z,11.34
2019-03-10T15:02:28.428Z,11.43
2019-03-10T15:04:57.769Z,11.48
2019-03-10T15:07:27.196Z,11.65
2019-03-10T15:09:56.745Z,11.64
2019-03-10T15:12:26.011Z,11.51
2019-03-10T15:14:55.523Z,11.52
2019-03-10T15:17:25.022Z,11.41
2019-03-10T15:19:54.310Z,11.50
2019-03-10T15:22:23.564Z,11.53
2019-03-10T15:24:52.885Z,11.46
2019-03-10T15:27:23.480Z,11.43
2019-03-10T15:29:53.086Z,11.41
2019-03-10T15:32:22.401Z,11.31
2019-03-10T15:34:51.730Z,11.19
2019-03-10T15:37:21.054Z,11.20
2019-03-10T15:39:51.163Z,11.03
2019-03-10T15:42:20.799Z,10.92
2019-03-10T15:44:50.532Z,10.80
2019-03-10T15:47:19.803Z,10.70
2019-03-10T15:49:49.108Z,10.74
2019-03-10T15:52:18.486Z,10.74
2019-03-10T15:54:47.830Z,10.83
2019-03-10T15:57:17.324Z,10.80
2019-03-10T15:59:46.625Z,10.85
2019-03-10T16:02:16.058Z,10.86
2019-03-10T16:04:45.338Z,10.83
2019-03-10T16:07:14.624Z,10.76
2019-03-10T16:09:43.851Z,10.77
2019-03-10T16:12:13.229Z,10.79
2019-03-10T16:14:42.761Z,10.78
2019-03-10T16:17:12.713Z,10.74
2019-03-10T16:19:42.072Z,10.78
2019-03-10T16:22:11.378Z,10.78
2019-03-10T16:24:40.655Z,10.66
2019-03-10T16:27:10.008Z,10.57
2019-03-10T16:29:39.611Z,10.44
2019-03-10T16:32:09.322Z,10.37
2019-03-10T16:34:38.597Z,10.35
2019-03-10T16:37:07.893Z,10.47
2019-03-10T16:39:37.160Z,10.43
2019-03-10T16:42:06.500Z,10.53
2019-03-10T16:44:35.878Z,10.59
2019-03-10T16:47:05.397Z,10.62
2019-03-10T16:49:35.362Z,10.67
2019-03-10T16:52:04.737Z,10.82
2019-03-10T16:54:34.318Z,10.78
2019-03-10T16:57:03.653Z,10.78
2019-03-10T16:59:34.212Z,10.83
2019-03-10T17:02:03.632Z,10.74
2019-03-10T17:04:32.872Z,10.77
2019-03-10T17:07:02.142Z,10.72
2019-03-10T17:09:31.375Z,10.66
2019-03-10T17:12:00.654Z,10.56
2019-03-10T17:14:29.919Z,10.54
2019-03-10T17:16:59.212Z,10.58
2019-03-10T17:19:28.491Z,10.51
2019-03-10T17:21:57.702Z,10.53
2019-03-10T17:24:30.055Z,10.46
2019-03-10T17:27:00.647Z,10.36
2019-03-10T17:29:31.612Z,10.45
2019-03-10T17:32:02.818Z,10.41
2019-03-10T17:34:34.204Z,10.39
2019-03-10T17:37:05.108Z,10.49
2019-03-10T17:39:35.406Z,10.68
2019-03-10T17:42:14.508Z,10.82
2019-03-10T17:44:46.937Z,10.85
2019-03-10T17:47:16.827Z,10.83
2019-03-10T17:49:47.447Z,10.84
2019-03-10T17:52:18.728Z,10.82
2019-03-10T17:54:49.038Z,10.91
2019-03-10T17:57:24.517Z,10.87
2019-03-10T17:59:54.662Z,10.89
2019-03-10T18:02:25.264Z,10.99
2019-03-10T18:04:57.196Z,10.99
2019-03-10T18:07:27.579Z,10.96
2019-03-10T18:09:57.714Z,10.99
2019-03-10T18:12:28.122Z,10.88
2019-03-10T18:15:08.228Z,10.91
2019-03-10T18:17:30.016Z,10.84
2019-03-10T18:19:59.988Z,10.76
2019-03-10T18:22:30.236Z,10.71
2019-03-10T18:25:00.710Z,10.74
2019-03-10T18:27:35.810Z,10.69
2019-03-10T18:30:07.648Z,10.66
2019-03-10T18:32:37.727Z,10.59
2019-03-10T18:35:08.026Z,10.56
2019-03-10T18:37:38.745Z,10.51
2019-03-10T18:40:11.803Z,10.43
2019-03-10T18:42:42.148Z,10.30
2019-03-10T18:45:15.102Z,10.19
2019-03-10T18:47:45.828Z,10.18
2019-03-10T18:50:17.918Z,10.00
2019-03-10T18:52:48.614Z,9.98
2019-03-10T18:55:19.636Z,10.04
2019-03-10T18:57:51.383Z,9.98
2019-03-10T19:00:24.034Z,9.96
2019-03-10T19:02:54.951Z,9.96
2019-03-10T19:05:29.171Z,9.96
2019-03-10T19:07:59.251Z,9.83
2019-03-10T19:10:29.426Z,9.88
2019-03-10T19:12:59.683Z,9.79
2019-03-10T19:15:30.534Z,9.82
2019-03-10T19:18:00.514Z,9.74
2019-03-10T19:20:31.496Z,9.69
2019-03-10T19:23:01.415Z,9.69
2019-03-10T19:25:31.240Z,9.70
2019-03-10T19:28:02.492Z,9.71
2019-03-10T19:30:33.005Z,9.64
2019-03-10T19:33:03.466Z,9.62
2019-03-10T19:35:33.853Z,9.57
2019-03-10T19:38:04.637Z,9.64
2019-03-10T19:40:35.015Z,9.45
2019-03-10T19:43:04.784Z,9.48
2019-03-10T19:45:34.915Z,9.34
2019-03-10T19:48:04.379Z,9.13
2019-03-10T19:50:35.443Z,9.00
2019-03-10T19:53:05.504Z,8.83
2019-03-10T19:55:35.788Z,8.44
2019-03-10T19:58:06.072Z,8.19
2019-03-10T20:00:36.362Z,7.38
